In Rescue
 
Open Full Screen Window  High Contrast Mode
Wind Gusting 00 knots
05
April 02, 2020 11:28 PM CDT
Present Weather: Light Snow
Weather Information
Wind Direction
  320 °
Wind Speed
  05 kt (6 mph)
Wind Gust
  00 kt (0 mph)
Altimeter
29.93 in
Visibility
4 SM
Temperature
-01° C
30° F
Dewpoint
-02° C
28° F
Humidity
93%
1hr Rain Fall
00.03 in.
24hr Rain Fall
00.26 in.
Sky Condition
Overcast @ 700 ft
IFR

METAR K14Y 030428Z AUTO 32005KT 4SM -SN OVC007 M01/M02 A2993 RMK AO2 P0003

FAA Disclaimer: The data displayed is for advisory purposes only and is not to be used for flight planning or operations.